sensor_id;sensor_type;location;lat;lon;timestamp;pressure;altitude;pressure_sealevel;temperature;humidity
21574;BME280;10948;48.706;9.258;2023-01-19T00:01:45;96764.28;;;-3.10;100.00
21574;BME280;10948;48.706;9.258;2023-01-19T00:04:10;96777.13;;;-2.81;100.00
21574;BME280;10948;48.706;9.258;2023-01-19T00:06:35;96780.19;;;-3.02;100.00
21574;BME280;10948;48.706;9.258;2023-01-19T00:09:01;96777.13;;;-3.16;100.00
21574;BME280;10948;48.706;9.258;2023-01-19T00:11:26;96789.22;;;-3.25;100.00
21574;BME280;10948;48.706;9.258;2023-01-19T00:13:52;96781.81;;;-3.36;100.00
21574;BME280;10948;48.706;9.258;2023-01-19T00:16:18;96781.63;;;-3.27;100.00
21574;BME280;10948;48.706;9.258;2023-01-19T00:18:46;96780.03;;;-3.31;100.00
21574;BME280;10948;48.706;9.258;2023-01-19T00:21:12;96784.03;;;-3.21;100.00
21574;BME280;10948;48.706;9.258;2023-01-19T00:23:41;96779.81;;;-3.22;100.00
21574;BME280;10948;48.706;9.258;2023-01-19T00:26:06;96795.41;;;-3.37;100.00
21574;BME280;10948;48.706;9.258;2023-01-19T00:28:33;96785.81;;;-3.24;100.00
21574;BME280;10948;48.706;9.258;2023-01-19T00:30:59;96786.31;;;-3.47;100.00
21574;BME280;10948;48.706;9.258;2023-01-19T00:33:24;96784.03;;;-3.59;100.00
21574;BME280;10948;48.706;9.258;2023-01-19T00:35:52;96787.25;;;-3.51;100.00
21574;BME280;10948;48.706;9.258;2023-01-19T00:38:19;96798.28;;;-3.14;100.00
21574;BME280;10948;48.706;9.258;2023-01-19T00:40:44;96791.16;;;-3.00;100.00
21574;BME280;10948;48.706;9.258;2023-01-19T00:43:09;96790.97;;;-2.91;100.00
21574;BME280;10948;48.706;9.258;2023-01-19T00:45:35;96794.94;;;-3.16;100.00
21574;BME280;10948;48.706;9.258;2023-01-19T00:48:00;96796.53;;;-3.48;100.00
21574;BME280;10948;48.706;9.258;2023-01-19T00:50:26;96801.00;;;-3.61;100.00
21574;BME280;10948;48.706;9.258;2023-01-19T00:52:52;96797.94;;;-3.76;100.00
21574;BME280;10948;48.706;9.258;2023-01-19T00:55:17;96801.09;;;-3.64;100.00
21574;BME280;10948;48.706;9.258;2023-01-19T00:57:43;96803.00;;;-3.75;100.00
21574;BME280;10948;48.706;9.258;2023-01-19T01:00:09;96800.25;;;-3.66;100.00
21574;BME280;10948;48.706;9.258;2023-01-19T01:02:35;96804.38;;;-3.59;100.00
21574;BME280;10948;48.706;9.258;2023-01-19T01:05:01;96802.75;;;-3.63;100.00
21574;BME280;10948;48.706;9.258;2023-01-19T01:07:27;96797.13;;;-3.77;100.00
21574;BME280;10948;48.706;9.258;2023-01-19T01:09:53;96800.66;;;-3.84;100.00
21574;BME280;10948;48.706;9.258;2023-01-19T01:12:18;96808.66;;;-3.62;100.00
21574;BME280;10948;48.706;9.258;2023-01-19T01:14:43;96806.97;;;-3.63;100.00
21574;BME280;10948;48.706;9.258;2023-01-19T01:17:08;96804.75;;;-3.77;100.00
21574;BME280;10948;48.706;9.258;2023-01-19T01:19:38;96802.34;;;-3.86;100.00
21574;BME280;10948;48.706;9.258;2023-01-19T01:22:03;96805.06;;;-3.92;100.00
21574;BME280;10948;48.706;9.258;2023-01-19T01:24:29;96808.50;;;-3.96;100.00
21574;BME280;10948;48.706;9.258;2023-01-19T01:26:54;96802.50;;;-3.92;100.00
21574;BME280;10948;48.706;9.258;2023-01-19T01:29:20;96801.78;;;-4.00;100.00
21574;BME280;10948;48.706;9.258;2023-01-19T01:31:45;96802.94;;;-3.72;100.00
21574;BME280;10948;48.706;9.258;2023-01-19T01:34:10;96808.16;;;-3.78;100.00
21574;BME280;10948;48.706;9.258;2023-01-19T01:36:35;96805.94;;;-3.94;100.00
21574;BME280;10948;48.706;9.258;2023-01-19T01:39:00;96808.50;;;-3.96;100.00
21574;BME280;10948;48.706;9.258;2023-01-19T01:41:26;96809.94;;;-3.83;100.00
21574;BME280;10948;48.706;9.258;2023-01-19T01:43:52;96812.25;;;-3.72;100.00
21574;BME280;10948;48.706;9.258;2023-01-19T01:46:20;96809.50;;;-4.04;100.00
21574;BME280;10948;48.706;9.258;2023-01-19T01:56:39;96822.75;;;-3.89;100.00
21574;BME280;10948;48.706;9.258;2023-01-19T01:59:06;96812.81;;;-3.99;100.00
21574;BME280;10948;48.706;9.258;2023-01-19T02:01:33;96814.28;;;-4.32;100.00
21574;BME280;10948;48.706;9.258;2023-01-19T02:04:17;96815.25;;;-3.95;100.00
21574;BME280;10948;48.706;9.258;2023-01-19T02:06:42;96818.72;;;-3.99;100.00
21574;BME280;10948;48.706;9.258;2023-01-19T02:09:26;96814.53;;;-4.01;100.00
21574;BME280;10948;48.706;9.258;2023-01-19T02:12:12;96812.91;;;-4.04;100.00
21574;BME280;10948;48.706;9.258;2023-01-19T02:14:56;96814.25;;;-3.88;100.00
21574;BME280;10948;48.706;9.258;2023-01-19T02:17:21;96815.44;;;-4.04;100.00
21574;BME280;10948;48.706;9.258;2023-01-19T02:19:47;96807.50;;;-3.87;100.00
21574;BME280;10948;48.706;9.258;2023-01-19T02:22:17;96806.25;;;-4.11;100.00
21574;BME280;10948;48.706;9.258;2023-01-19T02:24:44;96804.34;;;-4.00;100.00
21574;BME280;10948;48.706;9.258;2023-01-19T02:27:10;96810.28;;;-4.01;100.00
21574;BME280;10948;48.706;9.258;2023-01-19T02:29:36;96811.91;;;-3.97;100.00
21574;BME280;10948;48.706;9.258;2023-01-19T02:32:01;96806.72;;;-3.91;100.00
21574;BME280;10948;48.706;9.258;2023-01-19T02:34:27;96812.03;;;-4.03;100.00
21574;BME280;10948;48.706;9.258;2023-01-19T02:36:57;96820.34;;;-3.95;100.00
21574;BME280;10948;48.706;9.258;2023-01-19T02:39:25;96818.72;;;-3.99;100.00
21574;BME280;10948;48.706;9.258;2023-01-19T02:41:54;96811.25;;;-4.06;100.00
21574;BME280;10948;48.706;9.258;2023-01-19T02:44:21;96819.50;;;-3.95;100.00
21574;BME280;10948;48.706;9.258;2023-01-19T02:46:47;96817.03;;;-4.00;100.00
21574;BME280;10948;48.706;9.258;2023-01-19T02:49:12;96822.06;;;-3.97;100.00
21574;BME280;10948;48.706;9.258;2023-01-19T02:51:37;96814.69;;;-4.10;100.00
21574;BME280;10948;48.706;9.258;2023-01-19T02:56:38;96821.84;;;-4.30;100.00
21574;BME280;10948;48.706;9.258;2023-01-19T02:59:21;96833.72;;;-4.31;100.00
21574;BME280;10948;48.706;9.258;2023-01-19T03:04:34;96829.16;;;-4.62;100.00
21574;BME280;10948;48.706;9.258;2023-01-19T03:09:34;96823.16;;;-4.57;100.00
21574;BME280;10948;48.706;9.258;2023-01-19T03:12:10;96824.84;;;-4.56;100.00
21574;BME280;10948;48.706;9.258;2023-01-19T03:14:39;96828.31;;;-4.61;100.00
21574;BME280;10948;48.706;9.258;2023-01-19T03:17:06;96824.88;;;-4.59;100.00
21574;BME280;10948;48.706;9.258;2023-01-19T03:19:35;96824.84;;;-4.56;100.00
21574;BME280;10948;48.706;9.258;2023-01-19T03:22:05;96830.91;;;-4.66;100.00
21574;BME280;10948;48.706;9.258;2023-01-19T03:24:32;96830.81;;;-4.60;100.00
21574;BME280;10948;48.706;9.258;2023-01-19T03:27:01;96827.28;;;-4.51;100.00
21574;BME280;10948;48.706;9.258;2023-01-19T03:29:28;96831.41;;;-4.44;100.00
21574;BME280;10948;48.706;9.258;2023-01-19T03:31:55;96833.50;;;-4.69;100.00
21574;BME280;10948;48.706;9.258;2023-01-19T03:34:23;96830.63;;;-4.48;100.00
21574;BME280;10948;48.706;9.258;2023-01-19T03:36:51;96833.13;;;-4.45;100.00
21574;BME280;10948;48.706;9.258;2023-01-19T03:39:20;96833.44;;;-4.66;100.00
21574;BME280;10948;48.706;9.258;2023-01-19T03:41:46;96839.44;;;-4.68;100.00
21574;BME280;10948;48.706;9.258;2023-01-19T03:44:12;96838.31;;;-4.54;100.00
21574;BME280;10948;48.706;9.258;2023-01-19T03:46:37;96842.63;;;-4.59;100.00
21574;BME280;10948;48.706;9.258;2023-01-19T03:49:03;96846.38;;;-4.81;100.00
21574;BME280;10948;48.706;9.258;2023-01-19T03:51:29;96841.38;;;-4.84;100.00
21574;BME280;10948;48.706;9.258;2023-01-19T03:53:54;96830.09;;;-4.68;100.00
21574;BME280;10948;48.706;9.258;2023-01-19T03:56:23;96836.91;;;-4.70;100.00
21574;BME280;10948;48.706;9.258;2023-01-19T03:58:49;96831.09;;;-4.76;100.00
21574;BME280;10948;48.706;9.258;2023-01-19T04:01:14;96841.78;;;-4.58;100.00
21574;BME280;10948;48.706;9.258;2023-01-19T04:03:40;96840.66;;;-4.42;100.00
21574;BME280;10948;48.706;9.258;2023-01-19T04:06:06;96847.38;;;-4.38;100.00
21574;BME280;10948;48.706;9.258;2023-01-19T04:08:31;96845.22;;;-4.62;100.00
21574;BME280;10948;48.706;9.258;2023-01-19T04:10:56;96838.13;;;-4.92;100.00
21574;BME280;10948;48.706;9.258;2023-01-19T04:13:22;96841.91;;;-4.64;100.00
21574;BME280;10948;48.706;9.258;2023-01-19T04:15:47;96848.06;;;-4.80;100.00
21574;BME280;10948;48.706;9.258;2023-01-19T04:18:12;96842.34;;;-4.94;100.00
21574;BME280;10948;48.706;9.258;2023-01-19T04:20:37;96850.91;;;-5.01;100.00
21574;BME280;10948;48.706;9.258;2023-01-19T04:23:03;96850.69;;;-4.86;100.00
21574;BME280;10948;48.706;9.258;2023-01-19T04:25:29;96847.09;;;-4.73;100.00
21574;BME280;10948;48.706;9.258;2023-01-19T04:27:54;96852.16;;;-4.71;100.00
21574;BME280;10948;48.706;9.258;2023-01-19T04:30:22;96847.97;;;-4.75;100.00
21574;BME280;10948;48.706;9.258;2023-01-19T04:32:47;96858.03;;;-4.69;100.00
21574;BME280;10948;48.706;9.258;2023-01-19T04:35:12;96858.88;;;-4.69;100.00
21574;BME280;10948;48.706;9.258;2023-01-19T04:37:37;96858.81;;;-4.66;100.00
21574;BME280;10948;48.706;9.258;2023-01-19T04:40:03;96860.03;;;-4.88;100.00
21574;BME280;10948;48.706;9.258;2023-01-19T04:42:28;96865.78;;;-4.77;100.00
21574;BME280;10948;48.706;9.258;2023-01-19T04:44:53;96866.41;;;-4.64;100.00
21574;BME280;10948;48.706;9.258;2023-01-19T04:47:18;96862.00;;;-4.52;100.00
21574;BME280;10948;48.706;9.258;2023-01-19T04:49:44;96857.03;;;-4.59;100.00
21574;BME280;10948;48.706;9.258;2023-01-19T04:52:09;96864.66;;;-4.61;100.00
21574;BME280;10948;48.706;9.258;2023-01-19T04:54:35;96865.25;;;-5.00;100.00
21574;BME280;10948;48.706;9.258;2023-01-19T04:57:00;96865.88;;;-4.83;100.00
21574;BME280;10948;48.706;9.258;2023-01-19T04:59:25;96865.78;;;-4.77;100.00
21574;BME280;10948;48.706;9.258;2023-01-19T05:01:50;96868.38;;;-4.81;100.00
21574;BME280;10948;48.706;9.258;2023-01-19T05:04:16;96866.31;;;-4.58;100.00
21574;BME280;10948;48.706;9.258;2023-01-19T05:06:41;96872.09;;;-4.49;100.00
21574;BME280;10948;48.706;9.258;2023-01-19T05:09:06;96868.41;;;-4.33;100.00
21574;BME280;10948;48.706;9.258;2023-01-19T05:11:33;96871.44;;;-4.13;100.00
21574;BME280;10948;48.706;9.258;2023-01-19T05:13:58;96868.41;;;-4.33;100.00
21574;BME280;10948;48.706;9.258;2023-01-19T05:16:23;96869.44;;;-4.43;100.00
21574;BME280;10948;48.706;9.258;2023-01-19T05:18:49;96872.81;;;-4.42;100.00
21574;BME280;10948;48.706;9.258;2023-01-19T05:21:14;96868.13;;;-4.15;100.00
21574;BME280;10948;48.706;9.258;2023-01-19T05:23:39;96879.72;;;-4.02;100.00
21574;BME280;10948;48.706;9.258;2023-01-19T05:26:05;96874.34;;;-3.85;100.00
21574;BME280;10948;48.706;9.258;2023-01-19T05:28:31;96877.94;;;-3.97;100.00
21574;BME280;10948;48.706;9.258;2023-01-19T05:30:56;96879.44;;;-3.87;100.00
21574;BME280;10948;48.706;9.258;2023-01-19T05:33:22;96879.66;;;-3.53;100.00
21574;BME280;10948;48.706;9.258;2023-01-19T05:35:50;96878.91;;;-3.60;100.00
21574;BME280;10948;48.706;9.258;2023-01-19T05:38:16;96883.75;;;-3.48;100.00
21574;BME280;10948;48.706;9.258;2023-01-19T05:40:41;96873.78;;;-3.57;100.00
21574;BME280;10948;48.706;9.258;2023-01-19T05:43:07;96877.19;;;-3.58;100.00
21574;BME280;10948;48.706;9.258;2023-01-19T05:45:32;96878.91;;;-3.60;100.00
21574;BME280;10948;48.706;9.258;2023-01-19T05:47:58;96882.53;;;-3.70;100.00
21574;BME280;10948;48.706;9.258;2023-01-19T05:50:23;96884.25;;;-3.72;100.00
21574;BME280;10948;48.706;9.258;2023-01-19T05:52:49;96890.28;;;-3.77;100.00
21574;BME280;10948;48.706;9.258;2023-01-19T05:55:17;96895.91;;;-3.62;100.00
21574;BME280;10948;48.706;9.258;2023-01-19T05:57:42;96908.16;;;-3.82;100.00
21574;BME280;10948;48.706;9.258;2023-01-19T06:00:07;96905.19;;;-3.61;100.00
21574;BME280;10948;48.706;9.258;2023-01-19T06:02:33;96912.44;;;-3.84;100.00
21574;BME280;10948;48.706;9.258;2023-01-19T06:04:58;96908.63;;;-3.62;100.00
21574;BME280;10948;48.706;9.258;2023-01-19T06:07:23;96908.81;;;-3.72;100.00
21574;BME280;10948;48.706;9.258;2023-01-19T06:09:48;96916.34;;;-3.68;100.00
21574;BME280;10948;48.706;9.258;2023-01-19T06:12:14;96916.84;;;-3.95;100.00
21574;BME280;10948;48.706;9.258;2023-01-19T06:14:39;96915.19;;;-3.96;100.00
21574;BME280;10948;48.706;9.258;2023-01-19T06:17:05;96911.34;;;-3.71;100.00
21574;BME280;10948;48.706;9.258;2023-01-19T06:19:31;96918.84;;;-4.12;100.00
21574;BME280;10948;48.706;9.258;2023-01-19T06:21:56;96914.28;;;-3.92;100.00
21574;BME280;10948;48.706;9.258;2023-01-19T06:24:21;96912.03;;;-4.10;100.00
21574;BME280;10948;48.706;9.258;2023-01-19T06:26:47;96918.63;;;-4.00;100.00
21574;BME280;10948;48.706;9.258;2023-01-19T06:29:12;96911.94;;;-4.04;100.00
21574;BME280;10948;48.706;9.258;2023-01-19T06:31:38;96912.53;;;-3.90;100.00
21574;BME280;10948;48.706;9.258;2023-01-19T06:34:03;96914.81;;;-3.76;100.00
21574;BME280;10948;48.706;9.258;2023-01-19T06:36:28;96919.47;;;-3.99;100.00
21574;BME280;10948;48.706;9.258;2023-01-19T06:38:54;96916.56;;;-3.80;100.00
21574;BME280;10948;48.706;9.258;2023-01-19T06:41:19;96917.88;;;-4.05;100.00
21574;BME280;10948;48.706;9.258;2023-01-19T06:43:44;96918.31;;;-3.82;100.00
21574;BME280;10948;48.706;9.258;2023-01-19T06:46:09;96914.59;;;-3.66;100.00
21574;BME280;10948;48.706;9.258;2023-01-19T06:48:35;96920.66;;;-3.71;100.00
21574;BME280;10948;48.706;9.258;2023-01-19T06:51:00;96925.38;;;-3.99;100.00
21574;BME280;10948;48.706;9.258;2023-01-19T06:53:25;96928.53;;;-3.85;100.00
21574;BME280;10948;48.706;9.258;2023-01-19T06:55:52;96930.88;;;-3.74;100.00
21574;BME280;10948;48.706;9.258;2023-01-19T06:58:18;96931.56;;;-3.65;100.00
21574;BME280;10948;48.706;9.258;2023-01-19T07:00:43;96924.97;;;-3.32;100.00
21574;BME280;10948;48.706;9.258;2023-01-19T07:03:10;96925.72;;;-3.27;100.00
21574;BME280;10948;48.706;9.258;2023-01-19T07:05:41;96926.06;;;-3.03;100.00
21574;BME280;10948;48.706;9.258;2023-01-19T07:08:07;96931.94;;;-2.99;100.00
21574;BME280;10948;48.706;9.258;2023-01-19T07:10:32;96927.94;;;-2.73;100.00
21574;BME280;10948;48.706;9.258;2023-01-19T07:12:57;96926.38;;;-2.78;100.00
21574;BME280;10948;48.706;9.258;2023-01-19T07:15:23;96929.81;;;-2.81;100.00
21574;BME280;10948;48.706;9.258;2023-01-19T07:17:48;96922.50;;;-2.94;100.00
21574;BME280;10948;48.706;9.258;2023-01-19T07:20:14;96927.06;;;-3.10;100.00
21574;BME280;10948;48.706;9.258;2023-01-19T07:22:42;96934.94;;;-3.22;100.00
21574;BME280;10948;48.706;9.258;2023-01-19T07:25:09;96943.94;;;-3.48;100.00
21574;BME280;10948;48.706;9.258;2023-01-19T07:27:34;96940.56;;;-3.49;100.00
21574;BME280;10948;48.706;9.258;2023-01-19T07:30:00;96941.59;;;-3.16;100.00
21574;BME280;10948;48.706;9.258;2023-01-19T07:32:25;96941.47;;;-3.10;100.00
21574;BME280;10948;48.706;9.258;2023-01-19T07:34:51;96947.16;;;-2.98;100.00
21574;BME280;10948;48.706;9.258;2023-01-19T07:37:16;96956.22;;;-2.85;100.00
21574;BME280;10948;48.706;9.258;2023-01-19T07:39:41;96953.25;;;-2.67;100.00
21574;BME280;10948;48.706;9.258;2023-01-19T07:42:06;96949.13;;;-2.71;100.00
21574;BME280;10948;48.706;9.258;2023-01-19T07:44:32;96954.75;;;-2.57;100.00
21574;BME280;10948;48.706;9.258;2023-01-19T07:46:57;96950.69;;;-2.29;100.00
21574;BME280;10948;48.706;9.258;2023-01-19T07:49:22;96953.50;;;-2.39;100.00
21574;BME280;10948;48.706;9.258;2023-01-19T07:51:48;96953.75;;;-2.50;100.00
21574;BME280;10948;48.706;9.258;2023-01-19T07:54:13;96955.56;;;-2.56;100.00
21574;BME280;10948;48.706;9.258;2023-01-19T07:56:38;96968.63;;;-2.70;100.00
21574;BME280;10948;48.706;9.258;2023-01-19T07:59:04;96967.72;;;-2.67;100.00
21574;BME280;10948;48.706;9.258;2023-01-19T08:01:31;96964.34;;;-2.69;100.00
21574;BME280;10948;48.706;9.258;2023-01-19T08:03:56;96963.38;;;-2.62;100.00
21574;BME280;10948;48.706;9.258;2023-01-19T08:06:22;96968.69;;;-0.75;100.00
21574;BME280;10948;48.706;9.258;2023-01-19T08:08:48;96958.78;;;0.73;100.00
21574;BME280;10948;48.706;9.258;2023-01-19T08:11:14;96957.16;;;0.46;100.00
21574;BME280;10948;48.706;9.258;2023-01-19T08:13:40;96956.75;;;0.58;100.00
21574;BME280;10948;48.706;9.258;2023-01-19T08:16:06;96956.88;;;1.03;100.00
21574;BME280;10948;48.706;9.258;2023-01-19T08:18:31;96966.81;;;0.87;100.00
21574;BME280;10948;48.706;9.258;2023-01-19T08:20:57;96965.41;;;1.71;96.02
21574;BME280;10948;48.706;9.258;2023-01-19T08:23:22;96971.25;;;0.33;93.35
21574;BME280;10948;48.706;9.258;2023-01-19T08:25:47;96976.53;;;-0.52;100.00
21574;BME280;10948;48.706;9.258;2023-01-19T08:28:14;96974.06;;;0.99;99.63
21574;BME280;10948;48.706;9.258;2023-01-19T08:30:39;96974.31;;;1.16;95.36
21574;BME280;10948;48.706;9.258;2023-01-19T08:33:05;96973.06;;;1.94;93.31
21574;BME280;10948;48.706;9.258;2023-01-19T08:35:37;96962.47;;;4.99;84.81
21574;BME280;10948;48.706;9.258;2023-01-19T08:38:03;96961.22;;;7.33;70.68
21574;BME280;10948;48.706;9.258;2023-01-19T08:40:29;96966.06;;;3.93;67.83
21574;BME280;10948;48.706;9.258;2023-01-19T08:43:04;96976.53;;;2.94;76.02
21574;BME280;10948;48.706;9.258;2023-01-19T08:45:34;96975.91;;;4.02;76.63
21574;BME280;10948;48.706;9.258;2023-01-19T08:47:59;96973.84;;;3.54;77.37
21574;BME280;10948;48.706;9.258;2023-01-19T08:50:29;96981.09;;;3.83;79.64
21574;BME280;10948;48.706;9.258;2023-01-19T08:52:58;96981.09;;;2.48;81.48
21574;BME280;10948;48.706;9.258;2023-01-19T08:55:24;96989.81;;;1.81;86.36
21574;BME280;10948;48.706;9.258;2023-01-19T08:57:50;96983.53;;;1.66;89.91
21574;BME280;10948;48.706;9.258;2023-01-19T09:00:15;96981.25;;;1.13;90.90
21574;BME280;10948;48.706;9.258;2023-01-19T09:02:41;96992.38;;;1.81;91.41
21574;BME280;10948;48.706;9.258;2023-01-19T09:05:06;96979.31;;;2.90;90.11
21574;BME280;10948;48.706;9.258;2023-01-19T09:07:31;96977.00;;;3.42;84.04
21574;BME280;10948;48.706;9.258;2023-01-19T09:09:57;96977.91;;;3.60;84.07
21574;BME280;10948;48.706;9.258;2023-01-19T09:12:22;96974.59;;;4.29;78.51
21574;BME280;10948;48.706;9.258;2023-01-19T09:14:47;96970.34;;;4.96;75.44
21574;BME280;10948;48.706;9.258;2023-01-19T09:17:12;96973.25;;;4.90;73.64
21574;BME280;10948;48.706;9.258;2023-01-19T09:19:39;96978.59;;;5.51;71.51
21574;BME280;10948;48.706;9.258;2023-01-19T09:22:04;96976.13;;;6.27;67.95
21574;BME280;10948;48.706;9.258;2023-01-19T09:24:29;96973.53;;;4.84;66.76
21574;BME280;10948;48.706;9.258;2023-01-19T09:26:55;96978.50;;;3.65;73.41
21574;BME280;10948;48.706;9.258;2023-01-19T09:29:20;96985.28;;;2.90;77.59
21574;BME280;10948;48.706;9.258;2023-01-19T09:31:46;96990.31;;;2.32;83.31
21574;BME280;10948;48.706;9.258;2023-01-19T09:34:12;96988.41;;;2.15;87.20
21574;BME280;10948;48.706;9.258;2023-01-19T09:36:38;96992.34;;;2.24;87.10
21574;BME280;10948;48.706;9.258;2023-01-19T09:39:03;96990.81;;;2.20;89.21
21574;BME280;10948;48.706;9.258;2023-01-19T09:41:29;96997.50;;;2.02;90.11
21574;BME280;10948;48.706;9.258;2023-01-19T09:43:58;97002.16;;;1.93;92.03
21574;BME280;10948;48.706;9.258;2023-01-19T09:48:52;96999.97;;;1.82;95.12
21574;BME280;10948;48.706;9.258;2023-01-19T09:51:22;97000.41;;;1.72;94.89
21574;BME280;10948;48.706;9.258;2023-01-19T09:56:22;96999.41;;;1.97;93.91
21574;BME280;10948;48.706;9.258;2023-01-19T09:58:48;96998.81;;;1.91;93.78
21574;BME280;10948;48.706;9.258;2023-01-19T10:03:59;96994.41;;;1.73;93.34
21574;BME280;10948;48.706;9.258;2023-01-19T10:06:29;96992.91;;;1.89;93.06
21574;BME280;10948;48.706;9.258;2023-01-19T10:08:58;97003.59;;;2.63;89.61
21574;BME280;10948;48.706;9.258;2023-01-19T10:13:50;97002.75;;;1.99;86.84
21574;BME280;10948;48.706;9.258;2023-01-19T10:19:01;97000.34;;;2.38;89.19
21574;BME280;10948;48.706;9.258;2023-01-19T10:21:33;96995.88;;;2.21;88.18
21574;BME280;10948;48.706;9.258;2023-01-19T10:26:38;96982.09;;;2.24;90.33
21574;BME280;10948;48.706;9.258;2023-01-19T10:29:07;96981.28;;;2.02;91.37
21574;BME280;10948;48.706;9.258;2023-01-19T10:31:35;96984.91;;;2.18;92.56
21574;BME280;10948;48.706;9.258;2023-01-19T10:34:02;96984.84;;;2.19;92.49
21574;BME280;10948;48.706;9.258;2023-01-19T10:36:28;96982.72;;;2.09;91.62
21574;BME280;10948;48.706;9.258;2023-01-19T10:38:57;96982.81;;;2.06;92.29
21574;BME280;10948;48.706;9.258;2023-01-19T10:41:28;96983.41;;;1.91;92.67
21574;BME280;10948;48.706;9.258;2023-01-19T10:44:02;96984.25;;;1.91;91.80
21574;BME280;10948;48.706;9.258;2023-01-19T10:46:32;96979.63;;;2.01;91.58
21574;BME280;10948;48.706;9.258;2023-01-19T10:48:59;96976.81;;;2.07;92.47
21574;BME280;10948;48.706;9.258;2023-01-19T10:51:24;96980.56;;;2.20;91.78
21574;BME280;10948;48.706;9.258;2023-01-19T10:53:53;96981.88;;;1.87;92.16
21574;BME280;10948;48.706;9.258;2023-01-19T10:56:21;96985.06;;;1.92;92.97
21574;BME280;10948;48.706;9.258;2023-01-19T10:58:47;96979.47;;;2.04;93.47
21574;BME280;10948;48.706;9.258;2023-01-19T11:03:38;96972.09;;;1.96;92.73
21574;BME280;10948;48.706;9.258;2023-01-19T11:08:38;96977.41;;;1.70;95.18
21574;BME280;10948;48.706;9.258;2023-01-19T11:11:04;96975.59;;;1.72;96.86
21574;BME280;10948;48.706;9.258;2023-01-19T11:13:32;96973.16;;;1.91;97.64
21574;BME280;10948;48.706;9.258;2023-01-19T11:16:21;96975.66;;;1.71;97.43
21574;BME280;10948;48.706;9.258;2023-01-19T11:18:43;96977.00;;;1.81;99.28
21574;BME280;10948;48.706;9.258;2023-01-19T11:21:10;96980.84;;;1.69;99.58
21574;BME280;10948;48.706;9.258;2023-01-19T11:23:46;96981.09;;;1.85;99.75
21574;BME280;10948;48.706;9.258;2023-01-19T11:26:15;96982.66;;;1.89;99.73
21574;BME280;10948;48.706;9.258;2023-01-19T11:28:48;96984.72;;;1.79;100.00
21574;BME280;10948;48.706;9.258;2023-01-19T11:33:42;96981.41;;;1.77;100.00
21574;BME280;10948;48.706;9.258;2023-01-19T11:38:39;96979.94;;;1.92;100.00
21574;BME280;10948;48.706;9.258;2023-01-19T11:41:04;96976.13;;;2.23;100.00
21574;BME280;10948;48.706;9.258;2023-01-19T11:43:31;96978.66;;;2.03;100.00
21574;BME280;10948;48.706;9.258;2023-01-19T11:45:57;96968.75;;;2.16;100.00
21574;BME280;10948;48.706;9.258;2023-01-19T11:48:26;96966.44;;;2.30;99.62
21574;BME280;10948;48.706;9.258;2023-01-19T11:50:53;96962.41;;;2.24;97.45
21574;BME280;10948;48.706;9.258;2023-01-19T11:53:22;96963.59;;;2.16;99.10
21574;BME280;10948;48.706;9.258;2023-01-19T11:55:53;96964.13;;;2.24;99.91
21574;BME280;10948;48.706;9.258;2023-01-19T11:58:19;96957.09;;;2.29;97.75
21574;BME280;10948;48.706;9.258;2023-01-19T12:00:47;96955.38;;;2.29;98.17
21574;BME280;10948;48.706;9.258;2023-01-19T12:05:50;96948.53;;;2.28;99.23
21574;BME280;10948;48.706;9.258;2023-01-19T12:08:24;96947.81;;;2.25;98.84
21574;BME280;10948;48.706;9.258;2023-01-19T12:10:52;96944.13;;;2.32;98.25
21574;BME280;10948;48.706;9.258;2023-01-19T12:13:22;96937.56;;;2.45;98.50
21574;BME280;10948;48.706;9.258;2023-01-19T12:15:49;96947.38;;;2.35;98.76
21574;BME280;10948;48.706;9.258;2023-01-19T12:18:20;96943.16;;;2.34;97.54
21574;BME280;10948;48.706;9.258;2023-01-19T12:20:47;96947.75;;;2.48;97.60
21574;BME280;10948;48.706;9.258;2023-01-19T12:28:14;96948.34;;;2.13;99.48
21574;BME280;10948;48.706;9.258;2023-01-19T12:30:39;96947.78;;;2.05;99.25
21574;BME280;10948;48.706;9.258;2023-01-19T12:35:55;96948.72;;;2.24;100.00
21574;BME280;10948;48.706;9.258;2023-01-19T12:43:39;96940.19;;;2.03;99.89
21574;BME280;10948;48.706;9.258;2023-01-19T12:49:08;96949.72;;;2.00;100.00
21574;BME280;10948;48.706;9.258;2023-01-19T12:51:33;96949.59;;;2.03;100.00
21574;BME280;10948;48.706;9.258;2023-01-19T12:53:59;96956.88;;;1.92;100.00
21574;BME280;10948;48.706;9.258;2023-01-19T12:56:27;96956.56;;;1.78;100.00
21574;BME280;10948;48.706;9.258;2023-01-19T12:58:53;96953.97;;;2.01;100.00
21574;BME280;10948;48.706;9.258;2023-01-19T13:01:19;96955.72;;;1.99;100.00
21574;BME280;10948;48.706;9.258;2023-01-19T13:06:10;96950.13;;;1.89;100.00
21574;BME280;10948;48.706;9.258;2023-01-19T13:08:54;96942.50;;;1.88;100.00
21574;BME280;10948;48.706;9.258;2023-01-19T13:11:20;96947.03;;;2.03;100.00
21574;BME280;10948;48.706;9.258;2023-01-19T13:18:41;96942.38;;;1.91;100.00
21574;BME280;10948;48.706;9.258;2023-01-19T13:21:07;96947.03;;;2.03;100.00
21574;BME280;10948;48.706;9.258;2023-01-19T13:26:15;96953.72;;;2.07;100.00
21574;BME280;10948;48.706;9.258;2023-01-19T13:28:42;96948.69;;;2.04;100.00
21574;BME280;10948;48.706;9.258;2023-01-19T13:31:07;96960.47;;;2.09;100.00
21574;BME280;10948;48.706;9.258;2023-01-19T13:34:17;96955.25;;;2.11;100.00
21574;BME280;10948;48.706;9.258;2023-01-19T13:36:24;96958.84;;;2.07;100.00
21574;BME280;10948;48.706;9.258;2023-01-19T13:38:52;96958.84;;;2.07;100.00
21574;BME280;10948;48.706;9.258;2023-01-19T13:41:19;96962.56;;;2.00;100.00
21574;BME280;10948;48.706;9.258;2023-01-19T13:43:46;96955.88;;;1.96;100.00
21574;BME280;10948;48.706;9.258;2023-01-19T13:46:13;96961.84;;;1.96;100.00
21574;BME280;10948;48.706;9.258;2023-01-19T13:48:49;96963.44;;;1.99;100.00
21574;BME280;10948;48.706;9.258;2023-01-19T13:51:16;96964.56;;;1.92;100.00
21574;BME280;10948;48.706;9.258;2023-01-19T13:53:51;96970.34;;;1.97;100.00
21574;BME280;10948;48.706;9.258;2023-01-19T13:56:18;96969.69;;;1.92;100.00
21574;BME280;10948;48.706;9.258;2023-01-19T13:59:06;96971.63;;;1.87;100.00
21574;BME280;10948;48.706;9.258;2023-01-19T14:01:34;96983.31;;;1.94;100.00
21574;BME280;10948;48.706;9.258;2023-01-19T14:03:59;96974.72;;;1.95;100.00
21574;BME280;10948;48.706;9.258;2023-01-19T14:09:12;96972.91;;;1.97;100.00